sensor_id;sensor_type;location;lat;lon;timestamp;temperature;humidity
28069;DHT22;15382;47.578;8.086;2023-04-28T00:03:54;11.80;99.90
28069;DHT22;15382;47.578;8.086;2023-04-28T00:13:56;11.80;99.90
28069;DHT22;15382;47.578;8.086;2023-04-28T00:23:56;11.50;99.90
28069;DHT22;15382;47.578;8.086;2023-04-28T00:33:57;11.70;99.90
28069;DHT22;15382;47.578;8.086;2023-04-28T00:43:58;11.80;99.90
28069;DHT22;15382;47.578;8.086;2023-04-28T00:53:59;11.50;99.90
28069;DHT22;15382;47.578;8.086;2023-04-28T01:04:00;11.60;99.90
28069;DHT22;15382;47.578;8.086;2023-04-28T01:14:01;11.40;99.90
28069;DHT22;15382;47.578;8.086;2023-04-28T01:24:06;11.40;99.90
28069;DHT22;15382;47.578;8.086;2023-04-28T01:34:07;11.30;99.90
28069;DHT22;15382;47.578;8.086;2023-04-28T01:44:10;11.00;99.90
28069;DHT22;15382;47.578;8.086;2023-04-28T01:54:12;11.10;99.90
28069;DHT22;15382;47.578;8.086;2023-04-28T02:04:13;10.90;99.90
28069;DHT22;15382;47.578;8.086;2023-04-28T02:14:15;10.60;99.90
28069;DHT22;15382;47.578;8.086;2023-04-28T02:24:16;10.70;99.90
28069;DHT22;15382;47.578;8.086;2023-04-28T02:34:16;10.80;99.90
28069;DHT22;15382;47.578;8.086;2023-04-28T02:44:18;10.70;99.90
28069;DHT22;15382;47.578;8.086;2023-04-28T02:54:19;10.50;99.90
28069;DHT22;15382;47.578;8.086;2023-04-28T03:04:27;10.50;99.90
28069;DHT22;15382;47.578;8.086;2023-04-28T03:14:28;10.50;99.90
28069;DHT22;15382;47.578;8.086;2023-04-28T03:24:29;10.30;99.90
28069;DHT22;15382;47.578;8.086;2023-04-28T03:34:30;10.20;99.90
28069;DHT22;15382;47.578;8.086;2023-04-28T03:44:31;10.20;99.90
28069;DHT22;15382;47.578;8.086;2023-04-28T03:54:32;10.20;99.90
28069;DHT22;15382;47.578;8.086;2023-04-28T04:04:34;10.20;99.90
28069;DHT22;15382;47.578;8.086;2023-04-28T04:14:35;10.10;99.90
28069;DHT22;15382;47.578;8.086;2023-04-28T04:24:36;10.00;99.90
28069;DHT22;15382;47.578;8.086;2023-04-28T04:34:37;10.20;99.90
28069;DHT22;15382;47.578;8.086;2023-04-28T04:44:38;10.20;99.90
28069;DHT22;15382;47.578;8.086;2023-04-28T04:54:44;10.10;99.90
28069;DHT22;15382;47.578;8.086;2023-04-28T05:04:45;10.20;99.90
28069;DHT22;15382;47.578;8.086;2023-04-28T05:14:48;10.20;99.90
28069;DHT22;15382;47.578;8.086;2023-04-28T05:24:51;10.30;99.90
28069;DHT22;15382;47.578;8.086;2023-04-28T05:34:52;10.30;99.90
28069;DHT22;15382;47.578;8.086;2023-04-28T05:44:53;10.10;99.90
28069;DHT22;15382;47.578;8.086;2023-04-28T05:54:53;10.20;99.90
28069;DHT22;15382;47.578;8.086;2023-04-28T06:04:54;10.30;99.90
28069;DHT22;15382;47.578;8.086;2023-04-28T06:14:56;10.40;99.90
28069;DHT22;15382;47.578;8.086;2023-04-28T06:25:00;10.40;99.90
28069;DHT22;15382;47.578;8.086;2023-04-28T06:35:09;10.50;99.90
28069;DHT22;15382;47.578;8.086;2023-04-28T06:45:10;10.50;99.90
28069;DHT22;15382;47.578;8.086;2023-04-28T06:55:15;10.80;99.90
28069;DHT22;15382;47.578;8.086;2023-04-28T07:05:16;11.20;99.90
28069;DHT22;15382;47.578;8.086;2023-04-28T07:15:17;11.10;99.90
28069;DHT22;15382;47.578;8.086;2023-04-28T07:25:18;11.40;99.90
28069;DHT22;15382;47.578;8.086;2023-04-28T07:35:19;11.50;99.90
28069;DHT22;15382;47.578;8.086;2023-04-28T07:45:20;11.40;99.90
28069;DHT22;15382;47.578;8.086;2023-04-28T07:55:20;11.50;99.90
28069;DHT22;15382;47.578;8.086;2023-04-28T08:05:21;11.50;99.90
28069;DHT22;15382;47.578;8.086;2023-04-28T08:15:22;11.40;99.90
28069;DHT22;15382;47.578;8.086;2023-04-28T08:25:23;11.50;99.90
28069;DHT22;15382;47.578;8.086;2023-04-28T08:35:24;11.50;99.90
28069;DHT22;15382;47.578;8.086;2023-04-28T08:45:24;11.60;99.90
28069;DHT22;15382;47.578;8.086;2023-04-28T08:55:27;11.80;99.90
28069;DHT22;15382;47.578;8.086;2023-04-28T09:05:28;12.10;99.90
28069;DHT22;15382;47.578;8.086;2023-04-28T09:15:34;12.40;99.90
28069;DHT22;15382;47.578;8.086;2023-04-28T09:25:35;12.50;99.90
28069;DHT22;15382;47.578;8.086;2023-04-28T09:35:40;12.70;99.90
28069;DHT22;15382;47.578;8.086;2023-04-28T09:45:41;12.90;99.90
28069;DHT22;15382;47.578;8.086;2023-04-28T09:55:43;12.90;99.90
28069;DHT22;15382;47.578;8.086;2023-04-28T10:05:47;13.00;99.90
28069;DHT22;15382;47.578;8.086;2023-04-28T10:15:49;13.10;99.90
28069;DHT22;15382;47.578;8.086;2023-04-28T10:25:54;13.20;99.90
28069;DHT22;15382;47.578;8.086;2023-04-28T10:35:56;13.50;99.90
28069;DHT22;15382;47.578;8.086;2023-04-28T10:56:05;13.90;99.90
28069;DHT22;15382;47.578;8.086;2023-04-28T11:06:25;13.80;99.90
28069;DHT22;15382;47.578;8.086;2023-04-28T11:16:27;14.20;99.90
28069;DHT22;15382;47.578;8.086;2023-04-28T11:26:28;14.70;99.90
28069;DHT22;15382;47.578;8.086;2023-04-28T11:36:37;14.80;99.90
28069;DHT22;15382;47.578;8.086;2023-04-28T11:46:51;15.00;99.90
28069;DHT22;15382;47.578;8.086;2023-04-28T11:56:56;14.90;99.90
28069;DHT22;15382;47.578;8.086;2023-04-28T12:07:02;15.30;99.90
28069;DHT22;15382;47.578;8.086;2023-04-28T12:17:04;15.60;99.90
28069;DHT22;15382;47.578;8.086;2023-04-28T12:27:18;15.70;99.90
28069;DHT22;15382;47.578;8.086;2023-04-28T12:37:21;15.90;99.90
28069;DHT22;15382;47.578;8.086;2023-04-28T12:47:22;16.20;99.90
28069;DHT22;15382;47.578;8.086;2023-04-28T12:57:23;16.40;99.90
28069;DHT22;15382;47.578;8.086;2023-04-28T13:07:24;16.50;99.90
28069;DHT22;15382;47.578;8.086;2023-04-28T13:17:24;17.00;99.90
28069;DHT22;15382;47.578;8.086;2023-04-28T13:27:26;17.10;99.90
28069;DHT22;15382;47.578;8.086;2023-04-28T13:37:30;17.40;99.90
28069;DHT22;15382;47.578;8.086;2023-04-28T13:47:31;17.50;99.90
28069;DHT22;15382;47.578;8.086;2023-04-28T13:57:32;16.90;99.90
28069;DHT22;15382;47.578;8.086;2023-04-28T14:07:32;16.90;99.90
28069;DHT22;15382;47.578;8.086;2023-04-28T14:17:33;16.90;99.90
28069;DHT22;15382;47.578;8.086;2023-04-28T14:27:34;17.00;99.90
28069;DHT22;15382;47.578;8.086;2023-04-28T14:37:35;17.10;99.90
28069;DHT22;15382;47.578;8.086;2023-04-28T14:47:37;16.90;99.90
28069;DHT22;15382;47.578;8.086;2023-04-28T14:57:38;16.80;99.90
28069;DHT22;15382;47.578;8.086;2023-04-28T15:07:39;17.10;99.90
28069;DHT22;15382;47.578;8.086;2023-04-28T15:17:40;17.00;99.90
28069;DHT22;15382;47.578;8.086;2023-04-28T15:27:41;16.70;99.90
28069;DHT22;15382;47.578;8.086;2023-04-28T15:37:44;16.80;99.90
28069;DHT22;15382;47.578;8.086;2023-04-28T15:47:47;16.70;99.90
28069;DHT22;15382;47.578;8.086;2023-04-28T15:57:49;16.30;99.90
28069;DHT22;15382;47.578;8.086;2023-04-28T16:07:52;16.20;99.90
28069;DHT22;15382;47.578;8.086;2023-04-28T16:17:54;16.00;99.90
28069;DHT22;15382;47.578;8.086;2023-04-28T16:27:56;15.90;99.90
28069;DHT22;15382;47.578;8.086;2023-04-28T16:37:57;16.00;99.90
28069;DHT22;15382;47.578;8.086;2023-04-28T16:47:57;15.70;99.90
28069;DHT22;15382;47.578;8.086;2023-04-28T16:57:58;15.60;99.90
28069;DHT22;15382;47.578;8.086;2023-04-28T17:07:59;15.40;99.90
28069;DHT22;15382;47.578;8.086;2023-04-28T17:18:00;15.30;99.90
28069;DHT22;15382;47.578;8.086;2023-04-28T17:28:01;15.30;99.90
28069;DHT22;15382;47.578;8.086;2023-04-28T17:38:01;15.10;99.90
28069;DHT22;15382;47.578;8.086;2023-04-28T17:48:02;15.00;99.90
28069;DHT22;15382;47.578;8.086;2023-04-28T17:58:03;14.90;99.90
28069;DHT22;15382;47.578;8.086;2023-04-28T18:08:04;14.90;99.90
28069;DHT22;15382;47.578;8.086;2023-04-28T18:18:05;14.90;99.90
28069;DHT22;15382;47.578;8.086;2023-04-28T18:28:05;14.90;99.90
28069;DHT22;15382;47.578;8.086;2023-04-28T18:38:07;14.80;99.90
28069;DHT22;15382;47.578;8.086;2023-04-28T18:48:08;14.90;99.90
28069;DHT22;15382;47.578;8.086;2023-04-28T18:58:09;14.70;99.90
28069;DHT22;15382;47.578;8.086;2023-04-28T19:08:10;14.60;99.90
28069;DHT22;15382;47.578;8.086;2023-04-28T19:18:11;14.60;99.90
28069;DHT22;15382;47.578;8.086;2023-04-28T19:28:12;14.50;99.90
28069;DHT22;15382;47.578;8.086;2023-04-28T19:38:13;14.30;99.90
28069;DHT22;15382;47.578;8.086;2023-04-28T19:48:16;14.30;99.90
28069;DHT22;15382;47.578;8.086;2023-04-28T19:58:18;14.10;99.90
28069;DHT22;15382;47.578;8.086;2023-04-28T20:08:19;13.90;99.90
28069;DHT22;15382;47.578;8.086;2023-04-28T20:18:23;13.80;99.90
28069;DHT22;15382;47.578;8.086;2023-04-28T20:28:24;13.80;99.90
28069;DHT22;15382;47.578;8.086;2023-04-28T20:38:25;13.50;99.90
28069;DHT22;15382;47.578;8.086;2023-04-28T20:48:26;13.60;99.90
28069;DHT22;15382;47.578;8.086;2023-04-28T20:58:28;13.60;99.90
28069;DHT22;15382;47.578;8.086;2023-04-28T21:08:30;13.40;99.90
28069;DHT22;15382;47.578;8.086;2023-04-28T21:18:31;13.00;99.90
28069;DHT22;15382;47.578;8.086;2023-04-28T21:28:33;13.10;99.90
28069;DHT22;15382;47.578;8.086;2023-04-28T21:38:35;13.00;99.90
28069;DHT22;15382;47.578;8.086;2023-04-28T21:48:39;13.10;99.90
28069;DHT22;15382;47.578;8.086;2023-04-28T21:58:39;13.00;99.90
28069;DHT22;15382;47.578;8.086;2023-04-28T22:08:40;13.00;99.90
28069;DHT22;15382;47.578;8.086;2023-04-28T22:18:41;13.00;99.90
28069;DHT22;15382;47.578;8.086;2023-04-28T22:28:42;13.00;99.90
28069;DHT22;15382;47.578;8.086;2023-04-28T22:38:42;13.10;99.90
28069;DHT22;15382;47.578;8.086;2023-04-28T22:48:43;13.30;99.90
28069;DHT22;15382;47.578;8.086;2023-04-28T22:58:44;13.30;99.90
28069;DHT22;15382;47.578;8.086;2023-04-28T23:08:45;13.30;99.90
28069;DHT22;15382;47.578;8.086;2023-04-28T23:18:46;13.20;99.90
28069;DHT22;15382;47.578;8.086;2023-04-28T23:28:46;13.20;99.90
28069;DHT22;15382;47.578;8.086;2023-04-28T23:38:48;13.20;99.90
28069;DHT22;15382;47.578;8.086;2023-04-28T23:48:49;13.20;99.90
28069;DHT22;15382;47.578;8.086;2023-04-28T23:58:50;13.00;99.90
